createdAt,value
2019-05-02T00:00:15.196Z,9.95
2019-05-02T00:02:44.442Z,8.58
2019-05-02T00:05:15.935Z,9.23
2019-05-02T00:07:45.589Z,7.22
2019-05-02T00:10:20.013Z,5.42
2019-05-02T00:12:50.949Z,5.00
2019-05-02T00:15:20.220Z,6.12
2019-05-02T00:17:49.325Z,7.58
2019-05-02T00:20:21.029Z,5.75
2019-05-02T00:22:52.296Z,5.72
2019-05-02T00:25:20.183Z,6.58
2019-05-02T00:27:49.114Z,5.17
2019-05-02T00:30:18.699Z,4.60
2019-05-02T00:32:47.694Z,5.60
2019-05-02T00:35:16.789Z,3.40
2019-05-02T00:37:45.988Z,4.17
2019-05-02T00:40:15.179Z,6.62
2019-05-02T00:42:44.185Z,6.35
2019-05-02T00:45:14.179Z,5.30
2019-05-02T00:47:49.620Z,7.37
2019-05-02T00:50:18.523Z,4.47
2019-05-02T00:52:47.426Z,5.10
2019-05-02T00:55:16.347Z,5.87
2019-05-02T00:57:45.272Z,5.55
2019-05-02T01:00:18.529Z,6.65
2019-05-02T01:02:50.349Z,4.42
2019-05-02T01:05:19.228Z,5.55
2019-05-02T01:07:48.123Z,4.30
2019-05-02T01:10:21.341Z,5.40
2019-05-02T01:12:48.246Z,6.03
2019-05-02T01:15:17.580Z,4.92
2019-05-02T01:17:46.541Z,4.70
2019-05-02T01:20:15.534Z,3.70
2019-05-02T01:22:47.065Z,4.25
2019-05-02T01:25:16.942Z,6.65
2019-05-02T01:28:03.742Z,4.05
2019-05-02T01:30:42.440Z,4.53
2019-05-02T01:33:12.454Z,4.95
2019-05-02T01:35:49.620Z,4.20
2019-05-02T01:38:20.150Z,4.72
2019-05-02T01:40:54.692Z,5.67
2019-05-02T01:43:26.039Z,4.60
2019-05-02T01:45:55.028Z,4.40
2019-05-02T01:48:24.418Z,4.53
2019-05-02T01:50:53.510Z,3.77
2019-05-02T01:53:22.395Z,6.33
2019-05-02T01:55:52.057Z,6.42
2019-05-02T01:58:22.901Z,5.50
2019-05-02T02:00:52.053Z,5.50
2019-05-02T02:03:21.108Z,4.67
2019-05-02T02:05:50.113Z,3.85
2019-05-02T02:08:19.010Z,4.40
2019-05-02T02:10:50.708Z,5.30
2019-05-02T02:13:18.531Z,10.15
2019-05-02T02:15:47.427Z,10.20
2019-05-02T02:18:17.376Z,5.17
2019-05-02T02:21:03.381Z,6.00
2019-05-02T02:23:33.952Z,5.65
2019-05-02T02:26:06.939Z,7.42
2019-05-02T02:28:34.993Z,8.08
2019-05-02T02:31:05.226Z,5.20
2019-05-02T02:33:34.595Z,5.75
2019-05-02T02:36:03.740Z,5.22
2019-05-02T02:38:33.606Z,4.62
2019-05-02T02:41:06.348Z,6.17
2019-05-02T02:43:41.271Z,5.33
2019-05-02T02:46:17.676Z,4.10
2019-05-02T02:48:46.651Z,5.12
2019-05-02T02:51:23.784Z,8.13
2019-05-02T02:53:46.106Z,3.92
2019-05-02T02:56:15.126Z,5.33
2019-05-02T02:58:47.449Z,5.15
2019-05-02T03:01:27.281Z,5.12
2019-05-02T03:03:45.802Z,6.25
2019-05-02T03:06:14.741Z,5.20
2019-05-02T03:08:46.092Z,4.45
2019-05-02T03:11:22.691Z,7.87
2019-05-02T03:13:53.085Z,5.05
2019-05-02T03:16:26.114Z,5.12
2019-05-02T03:18:55.041Z,5.72
2019-05-02T03:21:23.940Z,6.42
2019-05-02T03:24:01.597Z,4.97
2019-05-02T03:26:23.673Z,4.85
2019-05-02T03:28:58.612Z,4.25
2019-05-02T03:31:29.065Z,3.70
2019-05-02T03:33:59.685Z,3.45
2019-05-02T03:36:34.436Z,3.33
2019-05-02T03:38:55.075Z,4.62
2019-05-02T03:41:23.984Z,4.12
2019-05-02T03:44:09.754Z,3.58
2019-05-02T03:46:23.535Z,3.62
2019-05-02T03:48:52.451Z,2.60
2019-05-02T03:51:24.988Z,2.98
2019-05-02T03:53:52.124Z,3.20
2019-05-02T03:56:21.111Z,2.62
2019-05-02T03:58:56.348Z,2.77
2019-05-02T04:01:22.102Z,2.52
2019-05-02T04:03:52.079Z,2.10
2019-05-02T04:06:23.444Z,1.95
2019-05-02T04:08:58.665Z,2.70
2019-05-02T04:11:24.499Z,2.65
2019-05-02T04:13:54.313Z,2.77
2019-05-02T04:16:23.901Z,3.08
2019-05-02T04:18:55.725Z,2.45
2019-05-02T04:21:25.999Z,2.20
2019-05-02T04:23:54.474Z,2.02
2019-05-02T04:26:23.471Z,2.10
2019-05-02T04:28:53.771Z,1.75
2019-05-02T04:31:24.983Z,2.02
2019-05-02T04:33:53.647Z,2.55
2019-05-02T04:36:22.521Z,2.83
2019-05-02T04:38:52.663Z,2.70
2019-05-02T04:41:28.887Z,2.58
2019-05-02T04:43:57.587Z,3.25
2019-05-02T04:46:28.088Z,3.15
2019-05-02T04:48:53.735Z,2.70
2019-05-02T04:51:22.620Z,2.47
2019-05-02T04:53:51.553Z,3.12
2019-05-02T04:56:20.515Z,2.12
2019-05-02T04:58:49.779Z,3.10
2019-05-02T05:01:21.341Z,3.15
2019-05-02T05:04:01.005Z,2.42
2019-05-02T05:06:20.609Z,3.47
2019-05-02T05:08:49.676Z,3.08
2019-05-02T05:11:24.490Z,2.10
2019-05-02T05:13:52.512Z,3.45
2019-05-02T05:16:19.932Z,2.08
2019-05-02T05:18:53.027Z,3.27
2019-05-02T05:21:19.432Z,2.37
2019-05-02T05:23:59.582Z,2.65
2019-05-02T05:26:28.556Z,2.37
2019-05-02T05:28:58.316Z,2.50
2019-05-02T05:31:29.246Z,4.00
2019-05-02T05:33:58.131Z,3.12
2019-05-02T05:36:32.562Z,2.52
2019-05-02T05:38:58.283Z,2.58
2019-05-02T05:41:27.927Z,1.95
2019-05-02T05:43:57.497Z,2.58
2019-05-02T05:46:28.006Z,2.42
2019-05-02T05:48:58.340Z,1.90
2019-05-02T05:51:27.834Z,3.90
2019-05-02T05:54:02.769Z,3.85
2019-05-02T05:56:28.071Z,2.67
2019-05-02T05:58:59.125Z,3.67
2019-05-02T06:01:33.996Z,1.95
2019-05-02T06:03:58.541Z,1.70
2019-05-02T06:06:27.623Z,1.60
2019-05-02T06:08:56.586Z,1.30
2019-05-02T06:11:25.512Z,0.90
2019-05-02T06:13:54.393Z,0.90
2019-05-02T06:16:23.291Z,0.60
2019-05-02T06:18:52.815Z,0.75
2019-05-02T06:21:21.701Z,0.70
2019-05-02T06:23:50.623Z,0.90
2019-05-02T06:26:19.533Z,0.70
2019-05-02T06:28:48.447Z,0.95
2019-05-02T06:31:17.377Z,0.70
2019-05-02T06:33:46.384Z,1.10
2019-05-02T06:36:15.279Z,0.88
2019-05-02T06:38:44.161Z,0.62
2019-05-02T06:41:16.070Z,0.90
2019-05-02T06:43:46.545Z,1.00
2019-05-02T06:46:16.233Z,1.17
2019-05-02T06:48:48.154Z,1.02
2019-05-02T06:51:19.613Z,0.78
2019-05-02T06:53:46.979Z,1.00
2019-05-02T06:56:16.613Z,1.20
2019-05-02T06:58:45.540Z,0.90
2019-05-02T07:01:16.162Z,0.88
2019-05-02T07:03:46.200Z,0.90
2019-05-02T07:06:15.992Z,0.80
2019-05-02T07:08:45.054Z,0.80
2019-05-02T07:11:14.088Z,1.72
2019-05-02T07:13:43.862Z,2.00
2019-05-02T07:16:16.199Z,2.45
2019-05-02T07:19:05.021Z,1.70
2019-05-02T07:21:34.048Z,1.25
2019-05-02T07:24:02.909Z,1.60
2019-05-02T07:26:31.911Z,1.80
2019-05-02T07:29:00.798Z,1.40
2019-05-02T07:31:29.670Z,1.40
2019-05-02T07:33:58.610Z,1.32
2019-05-02T07:36:31.067Z,1.20
2019-05-02T07:39:05.024Z,2.05
2019-05-02T07:41:30.192Z,1.20
2019-05-02T07:43:59.235Z,1.40
2019-05-02T07:46:28.126Z,1.42
2019-05-02T07:48:57.062Z,1.10
2019-05-02T07:51:26.070Z,0.98
2019-05-02T07:53:55.795Z,2.15
2019-05-02T07:56:25.490Z,1.00
2019-05-02T07:58:55.115Z,1.00
2019-05-02T08:01:23.972Z,0.78
2019-05-02T08:03:53.029Z,1.22
2019-05-02T08:06:34.681Z,1.00
2019-05-02T08:08:52.489Z,1.00
2019-05-02T08:11:21.479Z,1.22
2019-05-02T08:13:55.780Z,1.20
2019-05-02T08:16:22.360Z,1.30
2019-05-02T08:18:51.579Z,1.27
2019-05-02T08:21:20.474Z,1.00
2019-05-02T08:23:49.647Z,1.47
2019-05-02T08:26:21.788Z,1.30
2019-05-02T08:28:53.422Z,1.85
2019-05-02T08:31:22.312Z,1.37
2019-05-02T08:33:51.249Z,1.47
2019-05-02T08:36:20.195Z,1.47
2019-05-02T08:38:53.718Z,2.02
2019-05-02T08:41:20.285Z,1.30
2019-05-02T08:43:50.414Z,1.50
2019-05-02T08:46:19.336Z,1.67
2019-05-02T08:48:50.568Z,2.37
2019-05-02T08:51:18.851Z,2.00
2019-05-02T08:53:52.179Z,2.00
2019-05-02T08:56:21.347Z,1.62
2019-05-02T08:58:49.878Z,1.70
2019-05-02T09:01:34.567Z,1.90
2019-05-02T09:03:56.911Z,2.00
2019-05-02T09:06:26.186Z,1.62
2019-05-02T09:08:55.094Z,1.92
2019-05-02T09:11:23.965Z,1.87
2019-05-02T09:13:52.969Z,2.17
2019-05-02T09:16:28.480Z,2.00
2019-05-02T09:18:54.246Z,2.08
2019-05-02T09:21:26.695Z,1.92
2019-05-02T09:23:53.723Z,1.98
2019-05-02T09:26:35.012Z,1.72
2019-05-02T09:28:56.282Z,1.90
2019-05-02T09:31:23.851Z,1.85
2019-05-02T09:33:55.491Z,1.87
2019-05-02T09:36:23.411Z,1.40
2019-05-02T09:38:55.942Z,1.70
2019-05-02T09:41:27.027Z,1.30
2019-05-02T09:43:53.636Z,1.57
2019-05-02T09:46:22.557Z,1.52
2019-05-02T09:48:52.001Z,1.02
2019-05-02T09:51:21.668Z,1.30
2019-05-02T09:53:52.396Z,1.17
2019-05-02T09:56:22.010Z,1.52
2019-05-02T09:58:55.378Z,1.60
2019-05-02T10:01:25.938Z,2.12
2019-05-02T10:03:55.060Z,1.77
2019-05-02T10:06:23.979Z,2.35
2019-05-02T10:08:53.001Z,1.65
2019-05-02T10:11:26.105Z,1.30
2019-05-02T10:13:55.277Z,1.30
2019-05-02T10:16:27.179Z,1.65
2019-05-02T10:18:53.670Z,1.20
2019-05-02T10:21:22.978Z,1.30
2019-05-02T10:23:58.983Z,1.05
2019-05-02T10:26:24.603Z,1.75
2019-05-02T10:28:53.422Z,2.10
2019-05-02T10:31:22.585Z,2.25
2019-05-02T10:33:52.976Z,2.02
2019-05-02T10:36:23.951Z,2.30
2019-05-02T10:38:54.837Z,2.25
2019-05-02T10:41:23.226Z,2.33
2019-05-02T10:43:56.604Z,2.60
2019-05-02T10:46:33.443Z,1.80
2019-05-02T10:49:14.444Z,2.10
2019-05-02T10:52:48.091Z,2.33
2019-05-02T10:55:17.185Z,2.50
2019-05-02T10:57:46.130Z,2.70
2019-05-02T11:00:17.879Z,2.80
2019-05-02T11:02:52.473Z,2.77
2019-05-02T11:05:26.468Z,2.42
2019-05-02T11:07:56.971Z,2.12
2019-05-02T11:10:24.177Z,2.22
2019-05-02T11:12:56.153Z,2.80
2019-05-02T11:15:43.360Z,1.85
2019-05-02T11:18:12.738Z,1.70
2019-05-02T11:20:42.188Z,2.58
2019-05-02T11:23:12.742Z,1.95
2019-05-02T11:25:42.195Z,1.45
2019-05-02T11:28:12.466Z,1.90
2019-05-02T11:30:42.998Z,1.70
2019-05-02T11:33:13.349Z,2.08
2019-05-02T11:35:49.014Z,1.67
2019-05-02T11:38:35.958Z,1.22
2019-05-02T11:40:43.999Z,1.45
2019-05-02T11:43:12.984Z,1.20
2019-05-02T11:45:42.479Z,0.98
2019-05-02T11:48:13.858Z,1.10
2019-05-02T11:50:42.282Z,1.17
2019-05-02T11:53:24.893Z,1.00
2019-05-02T11:55:43.743Z,1.40
2019-05-02T11:58:12.613Z,1.40
2019-05-02T12:00:48.021Z,1.00
2019-05-02T12:03:16.857Z,1.40
2019-05-02T12:05:45.754Z,1.37
2019-05-02T12:08:14.663Z,1.52
2019-05-02T12:10:43.608Z,0.70
2019-05-02T12:13:15.994Z,1.00
2019-05-02T12:15:44.403Z,0.93
2019-05-02T12:18:13.642Z,0.80
2019-05-02T12:20:42.872Z,0.90
2019-05-02T12:23:13.010Z,1.10
2019-05-02T12:25:42.401Z,1.05
2019-05-02T12:28:12.001Z,1.10
2019-05-02T12:30:41.860Z,1.25
2019-05-02T12:33:12.240Z,1.05
2019-05-02T12:35:43.251Z,1.10
2019-05-02T12:38:12.398Z,1.27
2019-05-02T12:40:42.211Z,1.00
2019-05-02T12:43:12.038Z,0.93
2019-05-02T12:45:42.191Z,0.93
2019-05-02T12:48:12.889Z,0.93
2019-05-02T12:50:42.205Z,1.42
2019-05-02T12:53:12.568Z,0.85
2019-05-02T12:55:42.268Z,1.17
2019-05-02T12:58:12.489Z,1.20
2019-05-02T13:00:43.074Z,1.37
2019-05-02T13:03:16.556Z,1.67
2019-05-02T13:05:45.416Z,1.10
2019-05-02T13:08:14.531Z,1.57
2019-05-02T13:11:02.036Z,1.00
2019-05-02T13:13:28.059Z,1.03
2019-05-02T13:16:00.617Z,1.05
2019-05-02T13:18:32.474Z,1.25
2019-05-02T13:21:02.046Z,1.20
2019-05-02T13:23:37.181Z,1.40
2019-05-02T13:26:10.474Z,1.70
2019-05-02T13:28:36.287Z,1.57
2019-05-02T13:31:06.952Z,1.30
2019-05-02T13:33:43.721Z,1.20
2019-05-02T13:36:39.793Z,1.00
2019-05-02T13:39:13.609Z,1.55
2019-05-02T13:41:42.845Z,1.20
2019-05-02T13:44:13.487Z,1.30
2019-05-02T13:46:42.518Z,1.65
2019-05-02T13:49:12.755Z,0.80
2019-05-02T13:51:42.632Z,1.20
2019-05-02T13:54:12.610Z,1.10
2019-05-02T13:56:45.045Z,1.67
2019-05-02T13:59:13.894Z,1.80
2019-05-02T14:01:43.241Z,1.10
2019-05-02T14:04:14.941Z,0.90
2019-05-02T14:06:42.982Z,0.82
2019-05-02T14:09:27.176Z,0.78
2019-05-02T14:12:07.456Z,1.30
2019-05-02T14:14:36.391Z,1.20
2019-05-02T14:17:05.488Z,1.07
2019-05-02T14:19:34.487Z,1.57
2019-05-02T14:22:03.428Z,1.05
2019-05-02T14:24:32.477Z,1.15
2019-05-02T14:27:02.662Z,1.10
2019-05-02T14:29:52.536Z,1.17
2019-05-02T14:32:26.382Z,1.35
2019-05-02T14:34:57.026Z,0.93
2019-05-02T14:37:25.909Z,1.35
2019-05-02T14:39:56.402Z,0.90
2019-05-02T14:42:26.259Z,1.10
2019-05-02T14:45:10.724Z,0.80
2019-05-02T14:47:25.833Z,0.80
2019-05-02T14:49:56.762Z,1.12
2019-05-02T14:52:25.390Z,1.15
2019-05-02T14:54:55.734Z,0.90
2019-05-02T14:57:27.145Z,1.40
2019-05-02T14:59:59.359Z,1.22
2019-05-02T15:02:32.773Z,2.25
2019-05-02T15:07:31.862Z,1.62
2019-05-02T15:10:02.685Z,1.57
2019-05-02T15:12:32.506Z,1.20
2019-05-02T15:15:02.527Z,1.35
2019-05-02T15:17:33.653Z,1.12
2019-05-02T15:20:05.154Z,1.92
2019-05-02T15:22:37.422Z,1.55
2019-05-02T15:25:13.699Z,1.80
2019-05-02T15:27:42.528Z,1.35
2019-05-02T15:30:10.485Z,1.65
2019-05-02T15:32:51.967Z,1.42
2019-05-02T15:35:28.604Z,1.77
2019-05-02T15:38:02.769Z,1.70
2019-05-02T15:43:04.606Z,2.02
2019-05-02T15:45:29.570Z,1.30
2019-05-02T15:47:58.459Z,1.30
2019-05-02T15:50:27.371Z,2.00
2019-05-02T15:53:03.283Z,1.40
2019-05-02T15:55:32.408Z,1.77
2019-05-02T15:57:58.964Z,1.10
2019-05-02T16:00:38.572Z,1.50
2019-05-02T16:03:07.873Z,1.80
2019-05-02T16:05:41.090Z,2.00
2019-05-02T16:08:08.833Z,1.40
2019-05-02T16:10:38.768Z,1.70
2019-05-02T16:13:13.456Z,1.98
2019-05-02T16:15:39.711Z,1.65
2019-05-02T16:18:08.610Z,1.27
2019-05-02T16:21:04.785Z,1.32
2019-05-02T16:23:32.811Z,2.05
2019-05-02T16:26:01.061Z,1.70
2019-05-02T16:28:27.553Z,2.00
2019-05-02T16:30:58.092Z,1.60
2019-05-02T16:33:27.166Z,1.62
2019-05-02T16:35:56.262Z,2.25
2019-05-02T16:38:26.782Z,2.00
2019-05-02T16:40:55.895Z,1.40
2019-05-02T16:43:26.482Z,1.60
2019-05-02T16:45:55.372Z,1.37
2019-05-02T16:48:24.410Z,1.40
2019-05-02T16:50:53.501Z,2.12
2019-05-02T16:53:26.061Z,1.80
2019-05-02T16:55:53.683Z,1.90
2019-05-02T16:58:23.021Z,1.87
2019-05-02T17:00:55.395Z,1.55
2019-05-02T17:03:26.417Z,1.75
2019-05-02T17:05:55.044Z,1.50
2019-05-02T17:08:28.560Z,1.55
2019-05-02T17:10:59.382Z,1.77
2019-05-02T17:13:34.256Z,1.30
2019-05-02T17:16:06.875Z,1.00
2019-05-02T17:18:48.180Z,1.87
2019-05-02T17:21:14.862Z,1.40
2019-05-02T17:23:46.847Z,0.95
2019-05-02T17:26:14.644Z,1.32
2019-05-02T17:28:47.109Z,0.90
2019-05-02T17:31:19.265Z,1.65
2019-05-02T17:33:46.270Z,1.65
2019-05-02T17:36:15.855Z,1.00
2019-05-02T17:38:44.918Z,1.30
2019-05-02T17:41:13.831Z,1.52
2019-05-02T17:43:43.716Z,1.35
2019-05-02T17:46:18.284Z,1.57
2019-05-02T17:48:52.752Z,1.00
2019-05-02T17:51:46.665Z,0.85
2019-05-02T17:54:17.504Z,1.20
2019-05-02T17:56:44.789Z,1.72
2019-05-02T17:59:13.771Z,1.02
2019-05-02T18:01:42.715Z,0.80
2019-05-02T18:04:19.298Z,0.82
2019-05-02T18:06:55.261Z,1.73
2019-05-02T18:09:34.843Z,1.00
2019-05-02T18:12:12.730Z,1.32
2019-05-02T18:14:37.291Z,1.57
2019-05-02T18:17:06.295Z,1.30
2019-05-02T18:19:35.175Z,1.37
2019-05-02T18:22:08.302Z,1.10
2019-05-02T18:24:37.366Z,1.77
2019-05-02T18:27:12.889Z,1.45
2019-05-02T18:29:45.452Z,0.90
2019-05-02T18:32:12.928Z,0.90
2019-05-02T18:34:42.069Z,1.22
2019-05-02T18:37:11.164Z,0.80
2019-05-02T18:39:45.549Z,1.15
2019-05-02T18:42:11.945Z,1.00
2019-05-02T18:44:42.038Z,0.85
2019-05-02T18:47:24.567Z,0.65
2019-05-02T18:49:55.258Z,0.55
2019-05-02T18:52:35.650Z,0.30
2019-05-02T18:54:59.248Z,0.70
2019-05-02T18:57:29.679Z,1.12
2019-05-02T18:59:59.042Z,1.27
2019-05-02T19:02:35.584Z,0.80
2019-05-02T19:05:06.149Z,0.95
2019-05-02T19:07:36.665Z,0.93
2019-05-02T19:10:13.678Z,0.88
2019-05-02T19:12:42.679Z,0.60
2019-05-02T19:15:11.827Z,1.00
2019-05-02T19:17:48.739Z,0.93
2019-05-02T19:20:33.729Z,0.50
2019-05-02T19:23:02.946Z,0.72
2019-05-02T19:25:32.456Z,1.02
2019-05-02T19:28:12.112Z,0.57
2019-05-02T19:30:46.010Z,1.15
2019-05-02T19:33:42.662Z,0.50
2019-05-02T19:36:43.033Z,0.90
2019-05-02T19:39:24.032Z,1.82
2019-05-02T19:42:24.627Z,0.60
2019-05-02T19:45:16.915Z,1.07
2019-05-02T19:48:06.865Z,1.07
2019-05-02T19:50:47.526Z,1.20
2019-05-02T19:53:42.673Z,0.72
2019-05-02T19:56:24.123Z,0.62
2019-05-02T19:59:24.677Z,0.70
2019-05-02T20:02:06.006Z,1.27
2019-05-02T20:07:32.213Z,0.93
2019-05-02T20:10:42.047Z,1.10
2019-05-02T20:13:33.213Z,1.00
2019-05-02T20:16:25.938Z,0.80
2019-05-02T20:18:55.412Z,0.75
2019-05-02T20:21:32.802Z,0.55
2019-05-02T20:24:04.255Z,0.93
2019-05-02T20:26:34.382Z,0.95
2019-05-02T20:29:03.636Z,0.53
2019-05-02T20:31:35.005Z,0.65
2019-05-02T20:34:07.629Z,0.72
2019-05-02T20:36:36.697Z,0.75
2019-05-02T20:39:09.292Z,1.35
2019-05-02T20:41:41.959Z,7.30
2019-05-02T20:44:12.657Z,4.85
2019-05-02T20:46:43.319Z,1.92
2019-05-02T20:49:19.251Z,6.55
2019-05-02T20:51:51.772Z,4.05
2019-05-02T20:54:26.790Z,2.10
2019-05-02T20:56:57.890Z,1.82
2019-05-02T20:59:29.421Z,1.30
2019-05-02T21:02:01.578Z,1.32
2019-05-02T21:04:31.836Z,1.35
2019-05-02T21:07:12.043Z,1.37
2019-05-02T21:09:47.427Z,1.07
2019-05-02T21:12:25.109Z,1.30
2019-05-02T21:14:55.221Z,1.10
2019-05-02T21:17:27.559Z,1.10
2019-05-02T21:19:56.680Z,0.90
2019-05-02T21:22:28.875Z,1.10
2019-05-02T21:24:59.068Z,0.80
2019-05-02T21:27:33.712Z,0.65
2019-05-02T21:30:03.919Z,0.60
2019-05-02T21:32:33.836Z,1.00
2019-05-02T21:35:06.950Z,0.90
2019-05-02T21:37:36.016Z,1.45
2019-05-02T21:40:15.686Z,0.85
2019-05-02T21:42:44.757Z,1.00
2019-05-02T21:45:19.454Z,0.78
2019-05-02T21:47:48.479Z,0.98
2019-05-02T21:50:21.735Z,1.35
2019-05-02T21:53:12.597Z,0.65
2019-05-02T21:55:42.979Z,0.82
2019-05-02T21:58:16.826Z,1.05
2019-05-02T22:00:56.849Z,0.85
2019-05-02T22:03:26.174Z,1.32
2019-05-02T22:05:56.447Z,0.50
2019-05-02T22:08:25.693Z,0.60
2019-05-02T22:10:54.791Z,0.90
2019-05-02T22:13:23.989Z,0.80
2019-05-02T22:16:02.203Z,0.90
2019-05-02T22:18:32.112Z,1.00
2019-05-02T22:21:01.733Z,1.72
2019-05-02T22:23:33.554Z,1.30
2019-05-02T22:26:09.738Z,0.55
2019-05-02T22:28:38.749Z,1.30
2019-05-02T22:31:08.152Z,1.20
2019-05-02T22:33:44.688Z,1.62
2019-05-02T22:36:13.504Z,1.55
2019-05-02T22:39:02.468Z,1.62
2019-05-02T22:41:34.681Z,0.80
2019-05-02T22:44:04.112Z,0.90
2019-05-02T22:46:48.725Z,1.07
2019-05-02T22:49:17.796Z,1.00
2019-05-02T22:51:56.898Z,1.20
2019-05-02T22:54:30.421Z,0.65
2019-05-02T22:56:56.457Z,1.12
2019-05-02T22:59:34.237Z,1.30
2019-05-02T23:02:03.322Z,0.68
2019-05-02T23:04:32.738Z,0.70
2019-05-02T23:07:02.518Z,1.25
2019-05-02T23:09:31.665Z,1.05
2019-05-02T23:12:02.616Z,0.88
2019-05-02T23:14:39.546Z,0.95
2019-05-02T23:17:08.526Z,1.47
2019-05-02T23:19:37.674Z,1.30
2019-05-02T23:22:06.662Z,0.75
2019-05-02T23:24:40.372Z,0.85
2019-05-02T23:27:13.972Z,0.98
2019-05-02T23:29:43.582Z,0.60
2019-05-02T23:32:12.580Z,1.00
2019-05-02T23:34:45.354Z,1.22
2019-05-02T23:37:15.994Z,0.68
2019-05-02T23:39:52.332Z,0.70
2019-05-02T23:42:21.835Z,0.80
2019-05-02T23:44:51.880Z,1.47
2019-05-02T23:47:29.938Z,0.75
2019-05-02T23:49:58.818Z,0.70
2019-05-02T23:52:27.774Z,1.25
2019-05-02T23:55:06.518Z,0.78
2019-05-02T23:57:35.447Z,0.80
